createdAt,value
2019-05-18T00:00:48.767Z,14.10
2019-05-18T00:01:54.681Z,15.85
2019-05-18T00:02:59.738Z,14.07
2019-05-18T00:04:05.714Z,15.28
2019-05-18T00:05:11.001Z,16.48
2019-05-18T00:06:16.713Z,14.70
2019-05-18T00:07:22.056Z,14.95
2019-05-18T00:08:28.137Z,14.78
2019-05-18T00:09:33.163Z,15.28
2019-05-18T00:10:38.736Z,14.38
2019-05-18T00:11:43.690Z,14.83
2019-05-18T00:12:49.262Z,15.88
2019-05-18T00:13:54.322Z,15.28
2019-05-18T00:15:00.093Z,16.20
2019-05-18T00:16:05.239Z,14.25
2019-05-18T00:17:24.438Z,14.78
2019-05-18T00:18:17.836Z,15.00
2019-05-18T00:19:23.726Z,15.08
2019-05-18T00:20:28.728Z,15.05
2019-05-18T00:21:34.679Z,15.85
2019-05-18T00:22:39.646Z,15.10
2019-05-18T00:23:45.389Z,15.00
2019-05-18T00:24:50.498Z,15.65
2019-05-18T00:25:55.950Z,14.38
2019-05-18T00:27:00.962Z,14.65
2019-05-18T00:28:06.831Z,13.90
2019-05-18T00:29:12.246Z,13.55
2019-05-18T00:30:18.110Z,14.47
2019-05-18T00:31:23.735Z,13.58
2019-05-18T00:32:29.540Z,14.23
2019-05-18T00:33:34.660Z,14.75
2019-05-18T00:34:40.782Z,14.68
2019-05-18T00:35:45.790Z,14.70
2019-05-18T00:36:51.673Z,14.05
2019-05-18T00:37:56.601Z,15.18
2019-05-18T00:39:02.495Z,15.00
2019-05-18T00:40:09.119Z,14.15
2019-05-18T00:41:14.669Z,13.88
2019-05-18T00:42:22.567Z,13.90
2019-05-18T00:43:28.250Z,13.78
2019-05-18T00:44:33.287Z,12.75
2019-05-18T00:45:39.566Z,12.65
2019-05-18T00:46:44.552Z,11.93
2019-05-18T00:47:50.334Z,12.03
2019-05-18T00:48:55.295Z,11.60
2019-05-18T00:50:01.406Z,10.45
2019-05-18T00:51:06.370Z,10.95
2019-05-18T00:52:12.107Z,10.13
2019-05-18T00:53:17.124Z,10.90
2019-05-18T00:54:22.721Z,10.28
2019-05-18T00:55:28.089Z,9.88
2019-05-18T00:56:33.729Z,10.00
2019-05-18T00:57:38.675Z,9.60
2019-05-18T00:58:44.236Z,9.83
2019-05-18T00:59:49.376Z,10.45
2019-05-18T01:00:54.864Z,10.60
2019-05-18T01:01:59.896Z,11.40
2019-05-18T01:03:05.567Z,11.35
2019-05-18T01:04:10.523Z,11.38
2019-05-18T01:05:16.197Z,12.10
2019-05-18T01:06:21.568Z,11.60
2019-05-18T01:07:27.889Z,11.95
2019-05-18T01:08:32.854Z,11.65
2019-05-18T01:09:38.694Z,10.63
2019-05-18T01:10:44.421Z,10.55
2019-05-18T01:11:50.032Z,11.43
2019-05-18T01:12:55.356Z,10.80
2019-05-18T01:14:01.328Z,11.15
2019-05-18T01:15:07.127Z,9.65
2019-05-18T01:16:12.661Z,10.60
2019-05-18T01:17:17.638Z,10.13
2019-05-18T01:18:23.293Z,10.72
2019-05-18T01:19:28.664Z,11.73
2019-05-18T01:20:34.269Z,10.28
2019-05-18T01:21:39.712Z,9.55
2019-05-18T01:22:45.519Z,9.30
2019-05-18T01:23:50.894Z,9.13
2019-05-18T01:24:56.524Z,8.00
2019-05-18T01:26:01.537Z,8.88
2019-05-18T01:27:07.178Z,9.68
2019-05-18T01:28:12.481Z,9.40
2019-05-18T01:29:20.877Z,9.15
2019-05-18T01:30:26.947Z,7.95
2019-05-18T01:31:32.709Z,11.38
2019-05-18T01:32:37.776Z,9.78
2019-05-18T01:33:43.423Z,8.90
2019-05-18T01:34:48.850Z,9.83
2019-05-18T01:35:54.355Z,9.90
2019-05-18T01:36:59.696Z,9.55
2019-05-18T01:38:06.342Z,9.50
2019-05-18T01:39:11.404Z,9.73
2019-05-18T01:40:17.291Z,8.75
2019-05-18T01:41:22.403Z,8.88
2019-05-18T01:42:27.937Z,8.13
2019-05-18T01:43:32.935Z,9.08
2019-05-18T01:44:38.851Z,8.08
2019-05-18T01:45:43.999Z,9.23
2019-05-18T01:46:49.887Z,9.20
2019-05-18T01:47:54.898Z,8.95
2019-05-18T01:49:00.805Z,9.05
2019-05-18T01:50:06.416Z,10.08
2019-05-18T01:51:12.280Z,9.10
2019-05-18T01:52:17.300Z,9.25
2019-05-18T01:53:23.135Z,10.40
2019-05-18T01:54:28.074Z,8.58
2019-05-18T01:55:33.588Z,10.10
2019-05-18T01:56:38.534Z,9.70
2019-05-18T01:57:44.380Z,9.20
2019-05-18T01:58:49.401Z,9.25
2019-05-18T01:59:54.920Z,9.30
2019-05-18T02:00:59.939Z,9.48
2019-05-18T02:02:07.704Z,8.43
2019-05-18T02:03:12.794Z,8.80
2019-05-18T02:04:18.743Z,9.45
2019-05-18T02:05:23.885Z,9.80
2019-05-18T02:06:29.378Z,8.90
2019-05-18T02:07:34.314Z,10.08
2019-05-18T02:08:40.160Z,9.15
2019-05-18T02:09:45.100Z,10.00
2019-05-18T02:10:50.616Z,9.33
2019-05-18T02:11:55.878Z,9.13
2019-05-18T02:13:01.539Z,9.03
2019-05-18T02:14:06.918Z,9.40
2019-05-18T02:15:12.885Z,9.80
2019-05-18T02:16:17.916Z,9.70
2019-05-18T02:17:23.691Z,10.45
2019-05-18T02:18:29.481Z,9.13
2019-05-18T02:19:35.043Z,9.45
2019-05-18T02:20:40.285Z,8.70
2019-05-18T02:21:46.191Z,9.53
2019-05-18T02:22:51.173Z,9.20
2019-05-18T02:23:57.149Z,9.18
2019-05-18T02:25:02.171Z,9.73
2019-05-18T02:26:07.948Z,9.23
2019-05-18T02:27:13.344Z,9.63
2019-05-18T02:28:18.917Z,7.90
2019-05-18T02:29:24.197Z,8.80
2019-05-18T02:30:29.897Z,10.15
2019-05-18T02:31:35.063Z,9.75
2019-05-18T02:32:40.633Z,9.00
2019-05-18T02:33:45.967Z,9.05
2019-05-18T02:34:51.479Z,8.65
2019-05-18T02:35:56.440Z,8.98
2019-05-18T02:37:02.405Z,9.53
2019-05-18T02:38:17.025Z,8.68
2019-05-18T02:39:22.598Z,9.28
2019-05-18T02:40:28.090Z,8.70
2019-05-18T02:41:33.585Z,9.58
2019-05-18T02:42:38.585Z,8.90
2019-05-18T02:43:44.155Z,8.90
2019-05-18T02:44:49.241Z,9.88
2019-05-18T02:45:54.823Z,9.23
2019-05-18T02:46:59.961Z,8.50
2019-05-18T02:48:05.559Z,9.05
2019-05-18T02:49:10.974Z,8.70
2019-05-18T02:50:16.807Z,8.70
2019-05-18T02:51:22.119Z,9.63
2019-05-18T02:52:28.270Z,9.00
2019-05-18T02:53:33.556Z,9.65
2019-05-18T02:54:39.047Z,8.45
2019-05-18T02:55:44.362Z,10.00
2019-05-18T02:56:50.033Z,9.73
2019-05-18T02:57:55.027Z,8.55
2019-05-18T02:59:00.598Z,9.10
2019-05-18T03:00:07.050Z,9.93
2019-05-18T03:01:12.876Z,8.93
2019-05-18T03:02:18.209Z,9.30
2019-05-18T03:03:23.767Z,9.53
2019-05-18T03:04:28.763Z,9.40
2019-05-18T03:05:34.391Z,9.63
2019-05-18T03:06:39.417Z,9.43
2019-05-18T03:07:45.078Z,9.05
2019-05-18T03:08:50.182Z,9.13
2019-05-18T03:09:55.856Z,9.88
2019-05-18T03:11:01.163Z,9.90
2019-05-18T03:12:06.776Z,10.10
2019-05-18T03:13:11.864Z,10.20
2019-05-18T03:14:17.752Z,10.88
2019-05-18T03:15:22.837Z,9.55
2019-05-18T03:16:28.757Z,10.13
2019-05-18T03:17:33.743Z,8.45
2019-05-18T03:18:39.343Z,10.55
2019-05-18T03:19:44.424Z,9.53
2019-05-18T03:20:50.448Z,9.48
2019-05-18T03:22:00.922Z,9.95
2019-05-18T03:23:05.061Z,9.50
2019-05-18T03:24:10.145Z,9.53
2019-05-18T03:25:15.913Z,10.13
2019-05-18T03:26:20.846Z,9.00
2019-05-18T03:27:26.686Z,9.53
2019-05-18T03:28:31.624Z,11.05
2019-05-18T03:29:37.140Z,9.83
2019-05-18T03:30:42.133Z,10.10
2019-05-18T03:31:47.758Z,9.48
2019-05-18T03:32:52.798Z,10.72
2019-05-18T03:33:58.706Z,9.78
2019-05-18T03:35:04.106Z,10.40
2019-05-18T03:36:10.095Z,9.20
2019-05-18T03:37:15.702Z,10.05
2019-05-18T03:38:21.236Z,10.05
2019-05-18T03:39:26.297Z,10.05
2019-05-18T03:40:31.800Z,9.38
2019-05-18T03:41:36.864Z,9.40
2019-05-18T03:42:42.374Z,8.80
2019-05-18T03:43:47.597Z,10.25
2019-05-18T03:44:53.526Z,9.55
2019-05-18T03:45:58.455Z,9.78
2019-05-18T03:47:04.014Z,9.50
2019-05-18T03:48:09.265Z,10.72
2019-05-18T03:49:26.119Z,12.60
2019-05-18T03:50:21.456Z,9.73
2019-05-18T03:51:27.297Z,9.83
2019-05-18T03:52:32.559Z,10.85
2019-05-18T03:53:38.709Z,9.53
2019-05-18T03:54:45.589Z,9.48
2019-05-18T03:55:51.240Z,10.13
2019-05-18T03:56:56.176Z,10.63
2019-05-18T03:58:02.441Z,10.45
2019-05-18T03:59:07.884Z,10.50
2019-05-18T04:00:14.025Z,10.30
2019-05-18T04:01:19.279Z,11.03
2019-05-18T04:02:25.151Z,10.08
2019-05-18T04:03:30.086Z,10.13
2019-05-18T04:04:35.587Z,9.40
2019-05-18T04:05:42.305Z,9.80
2019-05-18T04:06:47.882Z,11.12
2019-05-18T04:07:52.917Z,9.53
2019-05-18T04:08:59.059Z,10.55
2019-05-18T04:10:04.476Z,9.95
2019-05-18T04:11:10.042Z,11.40
2019-05-18T04:12:15.415Z,10.98
2019-05-18T04:13:20.991Z,9.53
2019-05-18T04:14:26.185Z,8.45
2019-05-18T04:15:31.695Z,10.48
2019-05-18T04:16:36.716Z,9.50
2019-05-18T04:17:42.234Z,11.10
2019-05-18T04:18:47.181Z,9.60
2019-05-18T04:19:52.724Z,8.88
2019-05-18T04:20:59.505Z,10.30
2019-05-18T04:22:05.407Z,9.35
2019-05-18T04:23:10.460Z,8.85
2019-05-18T04:24:16.306Z,9.40
2019-05-18T04:25:21.576Z,8.93
2019-05-18T04:26:27.378Z,9.15
2019-05-18T04:27:32.667Z,9.05
2019-05-18T04:28:38.266Z,8.65
2019-05-18T04:29:43.568Z,10.08
2019-05-18T04:30:49.065Z,8.83
2019-05-18T04:31:54.446Z,9.33
2019-05-18T04:33:00.342Z,8.70
2019-05-18T04:34:05.380Z,10.50
2019-05-18T04:35:11.556Z,9.73
2019-05-18T04:36:16.504Z,10.23
2019-05-18T04:37:22.345Z,9.13
2019-05-18T04:38:27.297Z,8.90
2019-05-18T04:39:32.890Z,10.00
2019-05-18T04:40:37.842Z,9.03
2019-05-18T04:41:46.510Z,8.63
2019-05-18T04:42:51.806Z,9.10
2019-05-18T04:43:57.588Z,8.90
2019-05-18T04:45:02.990Z,9.75
2019-05-18T04:46:08.659Z,8.80
2019-05-18T04:47:13.862Z,10.08
2019-05-18T04:48:19.358Z,9.78
2019-05-18T04:49:24.371Z,15.70
2019-05-18T04:50:30.025Z,14.90
2019-05-18T04:51:34.954Z,11.03
2019-05-18T04:52:40.812Z,10.15
2019-05-18T04:53:45.763Z,9.48
2019-05-18T04:54:51.427Z,9.75
2019-05-18T04:55:57.054Z,9.23
2019-05-18T04:57:02.561Z,9.35
2019-05-18T04:58:07.575Z,10.08
2019-05-18T04:59:13.057Z,8.78
2019-05-18T05:00:18.258Z,9.63
2019-05-18T05:01:23.790Z,9.65
2019-05-18T05:02:28.966Z,9.95
2019-05-18T05:03:34.825Z,8.83
2019-05-18T05:04:40.172Z,10.80
2019-05-18T05:05:45.969Z,9.83
2019-05-18T05:06:52.175Z,9.33
2019-05-18T05:07:58.281Z,8.85
2019-05-18T05:09:04.762Z,9.50
2019-05-18T05:10:10.383Z,9.48
2019-05-18T05:11:15.382Z,10.18
2019-05-18T05:12:20.953Z,9.23
2019-05-18T05:13:25.907Z,9.18
2019-05-18T05:14:31.403Z,9.45
2019-05-18T05:15:36.396Z,10.05
2019-05-18T05:16:42.288Z,10.03
2019-05-18T05:17:47.528Z,10.35
2019-05-18T05:18:53.327Z,10.55
2019-05-18T05:19:58.616Z,10.03
2019-05-18T05:21:04.171Z,10.20
2019-05-18T05:22:09.423Z,9.80
2019-05-18T05:23:14.963Z,10.18
2019-05-18T05:24:19.918Z,9.95
2019-05-18T05:25:25.748Z,10.53
2019-05-18T05:26:30.728Z,9.00
2019-05-18T05:27:36.725Z,9.98
2019-05-18T05:28:41.665Z,10.20
2019-05-18T05:29:47.445Z,9.68
2019-05-18T05:30:52.448Z,9.68
2019-05-18T05:31:57.953Z,9.88
2019-05-18T05:33:02.946Z,9.93
2019-05-18T05:34:08.522Z,9.40
2019-05-18T05:35:13.806Z,9.50
2019-05-18T05:36:19.300Z,10.15
2019-05-18T05:37:24.602Z,10.70
2019-05-18T05:38:30.626Z,9.55
2019-05-18T05:39:36.002Z,9.80
2019-05-18T05:40:42.076Z,9.80
2019-05-18T05:41:47.033Z,10.13
2019-05-18T05:42:52.623Z,10.23
2019-05-18T05:43:57.703Z,10.32
2019-05-18T05:45:03.265Z,10.05
2019-05-18T05:46:08.522Z,12.37
2019-05-18T05:47:14.190Z,10.70
2019-05-18T05:48:19.149Z,10.88
2019-05-18T05:49:25.060Z,11.90
2019-05-18T05:50:36.142Z,10.23
2019-05-18T05:51:37.561Z,11.22
2019-05-18T05:52:42.599Z,11.45
2019-05-18T05:53:48.125Z,10.48
2019-05-18T05:54:53.478Z,10.08
2019-05-18T05:55:59.028Z,10.55
2019-05-18T05:57:04.170Z,10.90
2019-05-18T05:58:09.663Z,10.55
2019-05-18T05:59:14.629Z,10.32
2019-05-18T06:00:20.891Z,9.40
2019-05-18T06:01:26.457Z,10.43
2019-05-18T06:02:31.941Z,9.20
2019-05-18T06:03:37.034Z,9.80
2019-05-18T06:04:43.296Z,9.50
2019-05-18T06:05:48.734Z,10.25
2019-05-18T06:06:54.312Z,9.68
2019-05-18T06:07:59.476Z,9.40
2019-05-18T06:09:07.560Z,10.55
2019-05-18T06:10:13.322Z,10.25
2019-05-18T06:11:19.160Z,10.32
2019-05-18T06:12:24.279Z,10.65
2019-05-18T06:13:30.032Z,9.85
2019-05-18T06:14:35.121Z,10.43
2019-05-18T06:15:40.580Z,10.15
2019-05-18T06:16:45.586Z,9.95
2019-05-18T06:17:51.169Z,9.58
2019-05-18T06:18:56.125Z,10.03
2019-05-18T06:20:01.723Z,10.23
2019-05-18T06:21:06.853Z,10.20
2019-05-18T06:22:12.665Z,9.70
2019-05-18T06:23:18.009Z,10.55
2019-05-18T06:24:23.585Z,10.15
2019-05-18T06:25:34.069Z,9.88
2019-05-18T06:26:36.130Z,11.00
2019-05-18T06:27:41.313Z,9.80
2019-05-18T06:28:46.820Z,9.18
2019-05-18T06:29:51.764Z,10.90
2019-05-18T06:30:57.288Z,10.45
2019-05-18T06:32:02.294Z,10.18
2019-05-18T06:33:08.115Z,9.13
2019-05-18T06:34:13.174Z,9.98
2019-05-18T06:35:19.000Z,10.48
2019-05-18T06:36:24.074Z,10.40
2019-05-18T06:37:29.854Z,11.08
2019-05-18T06:38:35.391Z,10.58
2019-05-18T06:39:40.907Z,10.72
2019-05-18T06:40:45.935Z,10.88
2019-05-18T06:41:51.478Z,10.20
2019-05-18T06:42:56.529Z,11.93
2019-05-18T06:44:02.023Z,11.90
2019-05-18T06:45:07.354Z,10.68
2019-05-18T06:46:12.998Z,11.93
2019-05-18T06:47:18.017Z,12.58
2019-05-18T06:48:24.268Z,13.00
2019-05-18T06:49:29.298Z,12.40
2019-05-18T06:50:35.391Z,11.70
2019-05-18T06:51:40.335Z,12.28
2019-05-18T06:52:45.850Z,12.95
2019-05-18T06:53:50.931Z,11.10
2019-05-18T06:54:56.451Z,13.03
2019-05-18T06:56:03.003Z,13.08
2019-05-18T06:57:09.385Z,12.68
2019-05-18T06:58:16.111Z,10.88
2019-05-18T06:59:22.052Z,11.65
2019-05-18T07:00:27.467Z,12.23
2019-05-18T07:01:33.244Z,11.53
2019-05-18T07:02:38.262Z,11.93
2019-05-18T07:03:45.095Z,13.15
2019-05-18T07:04:50.204Z,11.20
2019-05-18T07:05:56.111Z,12.82
2019-05-18T07:07:01.198Z,12.93
2019-05-18T07:08:06.851Z,12.43
2019-05-18T07:09:14.256Z,11.40
2019-05-18T07:10:19.725Z,14.20
2019-05-18T07:11:24.831Z,12.55
2019-05-18T07:12:30.736Z,11.70
2019-05-18T07:13:35.742Z,13.62
2019-05-18T07:14:41.672Z,12.18
2019-05-18T07:15:46.694Z,13.00
2019-05-18T07:16:52.289Z,14.03
2019-05-18T07:17:57.353Z,12.28
2019-05-18T07:19:03.200Z,14.00
2019-05-18T07:20:08.610Z,12.40
2019-05-18T07:21:21.948Z,12.18
2019-05-18T07:22:21.469Z,13.68
2019-05-18T07:23:27.055Z,13.08
2019-05-18T07:24:32.325Z,13.50
2019-05-18T07:25:38.245Z,12.07
2019-05-18T07:26:43.858Z,11.33
2019-05-18T07:27:49.674Z,12.43
2019-05-18T07:28:55.307Z,12.28
2019-05-18T07:30:00.930Z,11.40
2019-05-18T07:31:07.283Z,11.12
2019-05-18T07:32:12.784Z,10.60
2019-05-18T07:33:18.218Z,10.38
2019-05-18T07:34:26.554Z,10.50
2019-05-18T07:35:30.875Z,10.10
2019-05-18T07:36:36.400Z,11.60
2019-05-18T07:37:41.760Z,10.82
2019-05-18T07:38:47.558Z,10.03
2019-05-18T07:39:52.688Z,10.55
2019-05-18T07:40:58.353Z,11.25
2019-05-18T07:42:03.292Z,9.68
2019-05-18T07:43:09.185Z,10.53
2019-05-18T07:44:14.184Z,10.35
2019-05-18T07:45:19.847Z,11.00
2019-05-18T07:46:24.904Z,10.55
2019-05-18T07:47:30.476Z,10.80
2019-05-18T07:48:35.781Z,10.60
2019-05-18T07:49:41.674Z,10.85
2019-05-18T07:50:46.755Z,10.32
2019-05-18T07:51:52.561Z,10.53
2019-05-18T07:52:57.601Z,9.93
2019-05-18T07:54:03.799Z,11.03
2019-05-18T07:55:10.121Z,10.53
2019-05-18T07:56:15.707Z,10.08
2019-05-18T07:57:21.012Z,10.63
2019-05-18T07:58:26.879Z,11.15
2019-05-18T07:59:31.940Z,10.75
2019-05-18T08:00:37.767Z,11.50
2019-05-18T08:01:42.875Z,11.50
2019-05-18T08:02:48.391Z,12.25
2019-05-18T08:03:53.557Z,12.73
2019-05-18T08:04:59.154Z,11.57
2019-05-18T08:06:04.232Z,11.70
2019-05-18T08:07:09.905Z,10.65
2019-05-18T08:08:14.884Z,11.15
2019-05-18T08:09:20.486Z,12.30
2019-05-18T08:10:36.599Z,12.55
2019-05-18T08:11:42.148Z,11.75
2019-05-18T08:12:47.072Z,12.10
2019-05-18T08:13:52.597Z,13.08
2019-05-18T08:14:58.264Z,12.82
2019-05-18T08:16:03.875Z,11.97
2019-05-18T08:17:09.018Z,12.80
2019-05-18T08:18:14.606Z,13.38
2019-05-18T08:19:19.639Z,12.53
2019-05-18T08:20:25.166Z,12.50
2019-05-18T08:21:30.285Z,12.33
2019-05-18T08:22:36.426Z,12.00
2019-05-18T08:23:41.725Z,11.80
2019-05-18T08:24:47.244Z,12.13
2019-05-18T08:25:52.291Z,12.70
2019-05-18T08:26:57.797Z,11.85
2019-05-18T08:28:02.735Z,13.28
2019-05-18T08:29:08.234Z,13.13
2019-05-18T08:30:13.748Z,12.13
2019-05-18T08:31:19.236Z,13.18
2019-05-18T08:32:24.155Z,14.03
2019-05-18T08:33:29.710Z,13.03
2019-05-18T08:34:34.920Z,13.72
2019-05-18T08:35:40.560Z,13.90
2019-05-18T08:36:45.461Z,14.00
2019-05-18T08:37:51.101Z,13.40
2019-05-18T08:38:56.086Z,11.83
2019-05-18T08:40:01.619Z,14.07
2019-05-18T08:41:06.680Z,13.65
2019-05-18T08:42:12.193Z,13.62
2019-05-18T08:43:17.145Z,13.30
2019-05-18T08:44:22.761Z,13.98
2019-05-18T08:45:27.780Z,13.95
2019-05-18T08:46:33.243Z,13.65
2019-05-18T08:47:38.585Z,14.00
2019-05-18T08:48:44.260Z,13.98
2019-05-18T08:49:49.286Z,13.75
2019-05-18T08:50:55.338Z,14.25
2019-05-18T08:52:08.216Z,13.75
2019-05-18T08:53:07.975Z,13.85
2019-05-18T08:54:13.275Z,13.88
2019-05-18T08:55:18.824Z,14.03
2019-05-18T08:56:24.065Z,15.80
2019-05-18T08:57:29.605Z,15.95
2019-05-18T08:58:34.936Z,15.43
2019-05-18T08:59:40.744Z,14.15
2019-05-18T09:00:45.709Z,14.35
2019-05-18T09:01:51.208Z,14.55
2019-05-18T09:02:56.454Z,16.02
2019-05-18T09:04:01.940Z,14.85
2019-05-18T09:05:07.831Z,14.15
2019-05-18T09:06:13.318Z,14.78
2019-05-18T09:07:18.594Z,14.90
2019-05-18T09:08:24.107Z,14.93
2019-05-18T09:09:29.080Z,15.72
2019-05-18T09:10:34.717Z,14.90
2019-05-18T09:11:40.233Z,15.40
2019-05-18T09:12:45.988Z,14.85
2019-05-18T09:13:50.988Z,16.27
2019-05-18T09:14:56.731Z,14.70
2019-05-18T09:16:01.743Z,14.73
2019-05-18T09:17:07.294Z,15.53
2019-05-18T09:18:12.338Z,16.27
2019-05-18T09:19:18.225Z,16.05
2019-05-18T09:20:23.205Z,15.45
2019-05-18T09:21:29.273Z,16.87
2019-05-18T09:22:34.276Z,15.32
2019-05-18T09:23:40.160Z,16.45
2019-05-18T09:24:45.544Z,16.70
2019-05-18T09:25:51.083Z,15.08
2019-05-18T09:26:56.288Z,15.78
2019-05-18T09:28:02.373Z,16.05
2019-05-18T09:29:07.637Z,15.48
2019-05-18T09:30:13.639Z,15.58
2019-05-18T09:31:18.646Z,16.27
2019-05-18T09:32:24.737Z,15.32
2019-05-18T09:33:29.745Z,15.83
2019-05-18T09:34:35.201Z,17.15
2019-05-18T09:35:40.224Z,15.70
2019-05-18T09:36:45.915Z,16.52
2019-05-18T09:37:50.908Z,17.00
2019-05-18T09:38:56.446Z,18.32
2019-05-18T09:40:01.710Z,18.87
2019-05-18T09:41:07.327Z,18.80
2019-05-18T09:42:12.257Z,15.15
2019-05-18T09:43:18.115Z,16.07
2019-05-18T09:44:23.422Z,17.00
2019-05-18T09:45:29.386Z,16.85
2019-05-18T09:46:34.976Z,15.48
2019-05-18T09:47:40.553Z,15.30
2019-05-18T09:48:45.511Z,16.23
2019-05-18T09:49:51.270Z,14.45
2019-05-18T09:50:56.286Z,15.45
2019-05-18T09:52:01.987Z,15.20
2019-05-18T09:53:07.222Z,14.70
2019-05-18T09:54:12.832Z,16.80
2019-05-18T09:55:18.065Z,15.48
2019-05-18T09:56:23.667Z,15.30
2019-05-18T09:57:28.632Z,15.43
2019-05-18T09:58:34.528Z,16.80
2019-05-18T09:59:39.517Z,15.95
2019-05-18T10:00:45.404Z,16.15
2019-05-18T10:01:50.833Z,17.98
2019-05-18T10:02:56.360Z,16.67
2019-05-18T10:04:01.662Z,14.25
2019-05-18T10:05:08.143Z,16.07
2019-05-18T10:06:13.211Z,16.20
2019-05-18T10:07:19.005Z,16.12
2019-05-18T10:08:24.215Z,14.95
2019-05-18T10:09:38.535Z,15.83
2019-05-18T10:10:36.522Z,16.40
2019-05-18T10:11:42.245Z,16.15
2019-05-18T10:12:47.369Z,15.63
2019-05-18T10:13:53.338Z,15.88
2019-05-18T10:14:58.412Z,14.83
2019-05-18T10:16:03.924Z,15.50
2019-05-18T10:17:08.946Z,16.23
2019-05-18T10:18:14.436Z,16.57
2019-05-18T10:19:19.429Z,18.70
2019-05-18T10:20:25.342Z,17.75
2019-05-18T10:21:30.439Z,17.50
2019-05-18T10:22:36.304Z,16.75
2019-05-18T10:23:41.410Z,17.12
2019-05-18T10:24:46.926Z,16.52
2019-05-18T10:25:51.872Z,18.00
2019-05-18T10:26:57.446Z,16.95
2019-05-18T10:28:02.478Z,17.73
2019-05-18T10:29:08.099Z,17.57
2019-05-18T10:30:14.843Z,17.60
2019-05-18T10:31:20.427Z,17.80
2019-05-18T10:32:25.799Z,16.42
2019-05-18T10:33:31.760Z,16.52
2019-05-18T10:34:36.715Z,17.32
2019-05-18T10:35:42.434Z,16.32
2019-05-18T10:36:47.727Z,17.82
2019-05-18T10:37:53.544Z,17.52
2019-05-18T10:38:58.521Z,17.07
2019-05-18T10:40:04.120Z,17.15
2019-05-18T10:41:09.114Z,17.48
2019-05-18T10:42:14.764Z,17.20
2019-05-18T10:43:19.767Z,16.90
2019-05-18T10:44:25.268Z,17.90
2019-05-18T10:45:30.325Z,15.83
2019-05-18T10:46:35.847Z,17.37
2019-05-18T10:47:41.102Z,17.15
2019-05-18T10:48:46.659Z,16.65
2019-05-18T10:49:52.013Z,16.67
2019-05-18T10:50:57.565Z,15.88
2019-05-18T10:52:02.840Z,15.85
2019-05-18T10:53:08.527Z,16.82
2019-05-18T10:54:13.750Z,15.65
2019-05-18T10:55:20.086Z,16.20
2019-05-18T10:56:25.116Z,15.85
2019-05-18T10:57:31.128Z,15.85
2019-05-18T10:58:36.061Z,14.78
2019-05-18T10:59:41.610Z,14.05
2019-05-18T11:00:46.742Z,15.40
2019-05-18T11:01:52.600Z,14.03
2019-05-18T11:02:57.682Z,14.05
2019-05-18T11:04:03.228Z,13.88
2019-05-18T11:05:08.784Z,13.38
2019-05-18T11:06:14.574Z,14.13
2019-05-18T11:07:20.027Z,13.22
2019-05-18T11:08:25.818Z,14.20
2019-05-18T11:09:31.005Z,13.32
2019-05-18T11:10:36.633Z,12.80
2019-05-18T11:11:42.003Z,16.80
2019-05-18T11:12:47.750Z,17.30
2019-05-18T11:13:52.954Z,16.30
2019-05-18T11:14:58.523Z,17.48
2019-05-18T11:16:03.769Z,18.10
2019-05-18T11:17:09.390Z,17.95
2019-05-18T11:18:14.481Z,16.25
2019-05-18T11:19:20.431Z,17.12
2019-05-18T11:20:25.529Z,15.20
2019-05-18T11:21:31.439Z,13.30
2019-05-18T11:22:36.589Z,12.58
2019-05-18T11:23:44.331Z,14.83
2019-05-18T11:24:49.082Z,14.15
2019-05-18T11:25:55.005Z,14.25
2019-05-18T11:26:59.970Z,15.32
2019-05-18T11:28:05.581Z,13.75
2019-05-18T11:29:10.702Z,16.27
2019-05-18T11:30:18.363Z,15.95
2019-05-18T11:31:23.461Z,15.32
2019-05-18T11:32:28.952Z,15.68
2019-05-18T11:33:34.167Z,16.93
2019-05-18T11:34:39.708Z,15.38
2019-05-18T11:35:44.989Z,15.10
2019-05-18T11:36:50.641Z,15.98
2019-05-18T11:37:55.993Z,16.15
2019-05-18T11:39:01.671Z,15.23
2019-05-18T11:40:07.395Z,16.12
2019-05-18T11:41:13.043Z,15.98
2019-05-18T11:42:18.367Z,15.18
2019-05-18T11:43:24.299Z,15.15
2019-05-18T11:44:29.276Z,14.70
2019-05-18T11:45:35.069Z,14.90
2019-05-18T11:46:40.222Z,14.53
2019-05-18T11:47:45.940Z,13.60
2019-05-18T11:48:51.170Z,14.15
2019-05-18T11:49:56.681Z,14.10
2019-05-18T11:51:01.926Z,14.63
2019-05-18T11:52:07.581Z,13.10
2019-05-18T11:53:12.735Z,14.17
2019-05-18T11:54:18.399Z,13.60
2019-05-18T11:55:23.944Z,13.93
2019-05-18T11:56:29.858Z,13.73
2019-05-18T11:57:35.286Z,14.38
2019-05-18T11:58:40.955Z,14.33
2019-05-18T11:59:45.884Z,13.50
2019-05-18T12:00:51.902Z,13.38
2019-05-18T12:01:56.967Z,12.90
2019-05-18T12:03:02.460Z,13.63
2019-05-18T12:04:07.478Z,12.90
2019-05-18T12:05:13.562Z,13.30
2019-05-18T12:06:18.619Z,12.43
2019-05-18T12:07:24.471Z,14.07
2019-05-18T12:08:29.424Z,12.53
2019-05-18T12:09:35.040Z,12.27
2019-05-18T12:10:40.042Z,13.20
2019-05-18T12:11:45.587Z,13.05
2019-05-18T12:12:50.744Z,13.43
2019-05-18T12:13:56.370Z,12.73
2019-05-18T12:15:01.323Z,11.60
2019-05-18T12:16:07.538Z,13.48
2019-05-18T12:17:12.737Z,11.73
2019-05-18T12:18:18.423Z,11.35
2019-05-18T12:19:23.539Z,11.43
2019-05-18T12:20:29.551Z,12.05
2019-05-18T12:21:34.805Z,11.28
2019-05-18T12:22:40.327Z,10.70
2019-05-18T12:23:45.437Z,9.50
2019-05-18T12:24:51.074Z,11.63
2019-05-18T12:25:56.039Z,11.48
2019-05-18T12:27:01.775Z,10.50
2019-05-18T12:28:07.347Z,9.83
2019-05-18T12:29:13.261Z,10.82
2019-05-18T12:30:19.145Z,10.80
2019-05-18T12:31:24.796Z,10.10
2019-05-18T12:32:30.103Z,9.28
2019-05-18T12:33:35.687Z,9.30
2019-05-18T12:34:40.655Z,9.88
2019-05-18T12:35:46.163Z,8.93
2019-05-18T12:36:51.568Z,8.80
2019-05-18T12:37:57.164Z,8.13
2019-05-18T12:39:03.417Z,8.45
2019-05-18T12:40:09.739Z,7.15
2019-05-18T12:41:16.222Z,8.18
2019-05-18T12:42:22.416Z,8.05
2019-05-18T12:43:27.506Z,8.20
2019-05-18T12:44:33.169Z,8.15
2019-05-18T12:45:38.176Z,10.00
2019-05-18T12:46:44.193Z,9.10
2019-05-18T12:47:49.411Z,9.03
2019-05-18T12:48:55.017Z,8.40
2019-05-18T12:50:00.009Z,8.00
2019-05-18T12:51:05.600Z,6.85
2019-05-18T12:52:11.414Z,7.28
2019-05-18T12:53:17.732Z,7.85
2019-05-18T12:54:30.984Z,6.47
2019-05-18T12:55:30.574Z,6.33
2019-05-18T12:56:35.583Z,6.70
2019-05-18T12:57:41.597Z,6.37
2019-05-18T12:58:46.657Z,6.87
2019-05-18T12:59:52.322Z,7.20
2019-05-18T13:00:57.430Z,6.92
2019-05-18T13:02:03.419Z,6.95
2019-05-18T13:03:08.406Z,6.90
2019-05-18T13:04:14.024Z,6.22
2019-05-18T13:05:19.660Z,6.62
2019-05-18T13:06:25.232Z,5.95
2019-05-18T13:07:30.270Z,6.92
2019-05-18T13:08:36.282Z,9.33
2019-05-18T13:09:41.685Z,8.83
2019-05-18T13:10:47.476Z,8.73
2019-05-18T13:11:52.802Z,8.70
2019-05-18T13:12:58.438Z,8.08
2019-05-18T13:14:03.537Z,8.43
2019-05-18T13:15:09.740Z,8.75
2019-05-18T13:16:14.687Z,7.92
2019-05-18T13:17:21.352Z,7.40
2019-05-18T13:18:26.661Z,7.45
2019-05-18T13:19:32.255Z,8.03
2019-05-18T13:20:38.306Z,7.62
2019-05-18T13:21:44.087Z,7.47
2019-05-18T13:22:49.465Z,8.10
2019-05-18T13:23:55.052Z,8.00
2019-05-18T13:25:00.700Z,8.30
2019-05-18T13:26:06.317Z,7.92
2019-05-18T13:27:11.275Z,7.65
2019-05-18T13:28:16.826Z,7.05
2019-05-18T13:29:22.186Z,6.95
2019-05-18T13:30:28.262Z,6.70
2019-05-18T13:31:33.969Z,6.37
2019-05-18T13:32:39.820Z,7.08
2019-05-18T13:33:45.114Z,7.10
2019-05-18T13:34:51.469Z,7.20
2019-05-18T13:35:56.471Z,8.03
2019-05-18T13:37:02.049Z,6.75
2019-05-18T13:38:07.160Z,6.45
2019-05-18T13:39:13.094Z,7.22
2019-05-18T13:40:18.710Z,8.55
2019-05-18T13:41:24.406Z,7.42
2019-05-18T13:42:29.447Z,7.08
2019-05-18T13:43:35.241Z,9.28
2019-05-18T13:44:40.600Z,7.53
2019-05-18T13:45:46.522Z,6.70
2019-05-18T13:46:51.640Z,7.12
2019-05-18T13:47:57.379Z,7.00
2019-05-18T13:49:02.311Z,6.65
2019-05-18T13:50:08.723Z,7.15
2019-05-18T13:51:13.823Z,7.42
2019-05-18T13:52:19.651Z,7.28
2019-05-18T13:53:25.387Z,7.85
2019-05-18T13:54:30.978Z,8.10
2019-05-18T13:55:36.019Z,8.90
2019-05-18T13:56:41.577Z,8.88
2019-05-18T13:57:46.615Z,10.72
2019-05-18T13:58:52.187Z,8.70
2019-05-18T13:59:57.546Z,10.25
2019-05-18T14:01:03.187Z,9.63
2019-05-18T14:02:08.708Z,10.25
2019-05-18T14:03:14.560Z,9.60
2019-05-18T14:04:19.563Z,10.05
2019-05-18T14:05:25.372Z,10.40
2019-05-18T14:06:30.413Z,9.73
2019-05-18T14:07:36.082Z,9.45
2019-05-18T14:08:41.072Z,9.28
2019-05-18T14:09:46.583Z,9.63
2019-05-18T14:10:51.565Z,9.70
2019-05-18T14:11:57.384Z,9.80
2019-05-18T14:13:02.482Z,8.58
2019-05-18T14:14:08.384Z,8.73